AAL209 KJFK-LIRF
Flight info
| Callsign | AAL209 |
|---|---|
| Flight time | N/A |
| Altitude | 37000 |
| Route | HAPIE DCT YAHOO DCT WHALE DCT NANSO/M085F370 N59E RAFIN DCT 45N050W 47N040W 49N030W 51N020W DCT DINIM DCT ELSOX/M085F390 DCT TAKAS/N0490F390 DCT ALUTA DCT TERKU DCT KORER DCT LEMKA DCT BEBIX/N0495F400 DCT VALKU/N0493F390 DCT TIS DCT MEBAK DCT GIPNO DCT BALSI DCT OBIGO DCT ROBEX DCT LAPRI/N0488F400 DCT MOGBO/N0487F410 DCT ELB/N0485F400 DCT ELKAP |
| Aircraft | B789/H-SDE1E2E3FGHIJ2J3J4J5M1RWXY/LB1D1 |
Departure
| Time | 2026-05-05 05:04 |
|---|---|
| Airport | John F. Kennedy International Airport (KJFK) |
Arrival
| Time | N/A |
|---|---|
| Airport | Rome–Fiumicino Leonardo da Vinci International Airport (LIRF) |
| Time | Latitude | Longitude | Altitude | Speed | Heading |
|---|---|---|---|---|---|
| 2026-05-05 04:27 | 40.64940 | -73.78981 | 23 ft | 0 kts | 201° |
| 2026-05-05 04:46 | 40.64959 | -73.78971 | 26 ft | 4 kts | 200° |
| 2026-05-05 04:46 | 40.64985 | -73.78960 | 27 ft | 4 kts | 198° |
| 2026-05-05 04:46 | 40.65011 | -73.78949 | 25 ft | 4 kts | 197° |
| 2026-05-05 04:46 | 40.65032 | -73.78937 | 27 ft | 2 kts | 221° |
| 2026-05-05 04:47 | 40.65039 | -73.78926 | 27 ft | 2 kts | 238° |
| 2026-05-05 04:47 | 40.65039 | -73.78924 | 27 ft | 0 kts | 239° |
| 2026-05-05 04:49 | 40.65039 | -73.78925 | 27 ft | 0 kts | 239° |
| 2026-05-05 04:49 | 40.65036 | -73.78932 | 26 ft | 1 kts | 239° |
| 2026-05-05 04:49 | 40.65035 | -73.78934 | 26 ft | 0 kts | 239° |
| 2026-05-05 04:51 | 40.65034 | -73.78936 | 27 ft | 0 kts | 239° |
| 2026-05-05 04:51 | 40.65031 | -73.78941 | 27 ft | 2 kts | 239° |
| 2026-05-05 04:51 | 40.65008 | -73.78995 | 27 ft | 11 kts | 240° |
| 2026-05-05 04:52 | 40.64958 | -73.79110 | 27 ft | 15 kts | 242° |
| 2026-05-05 04:52 | 40.64910 | -73.79231 | 23 ft | 15 kts | 242° |
| 2026-05-05 04:52 | 40.64861 | -73.79345 | 27 ft | 14 kts | 240° |
| 2026-05-05 04:52 | 40.64815 | -73.79454 | 24 ft | 13 kts | 240° |
| 2026-05-05 04:53 | 40.64769 | -73.79560 | 25 ft | 13 kts | 240° |
| 2026-05-05 04:53 | 40.64726 | -73.79661 | 24 ft | 12 kts | 240° |
| 2026-05-05 04:53 | 40.64696 | -73.79705 | 29 ft | 3 kts | 194° |
| 2026-05-05 04:53 | 40.64659 | -73.79694 | 30 ft | 9 kts | 159° |
| 2026-05-05 04:54 | 40.64589 | -73.79638 | 27 ft | 14 kts | 148° |
| 2026-05-05 04:54 | 40.64500 | -73.79601 | 28 ft | 13 kts | 172° |
| 2026-05-05 04:54 | 40.64389 | -73.79592 | 29 ft | 16 kts | 181° |
| 2026-05-05 04:54 | 40.64282 | -73.79598 | 30 ft | 15 kts | 183° |
| 2026-05-05 04:55 | 40.64184 | -73.79606 | 30 ft | 13 kts | 183° |
| 2026-05-05 04:55 | 40.64134 | -73.79608 | 29 ft | 1 kts | 210° |
| 2026-05-05 04:55 | 40.64127 | -73.79637 | 27 ft | 2 kts | 276° |
| 2026-05-05 04:55 | 40.64139 | -73.79675 | 29 ft | 8 kts | 292° |
| 2026-05-05 04:56 | 40.64149 | -73.79790 | 26 ft | 14 kts | 265° |
| 2026-05-05 04:56 | 40.64184 | -73.79901 | 32 ft | 13 kts | 310° |
| 2026-05-05 04:56 | 40.64246 | -73.79990 | 31 ft | 15 kts | 309° |
| 2026-05-05 04:56 | 40.64327 | -73.80154 | 30 ft | 23 kts | 301° |
| 2026-05-05 04:57 | 40.64407 | -73.80335 | 30 ft | 22 kts | 301° |
| 2026-05-05 04:57 | 40.64486 | -73.80508 | 27 ft | 22 kts | 301° |
| 2026-05-05 04:57 | 40.64561 | -73.80673 | 29 ft | 21 kts | 301° |
| 2026-05-05 04:57 | 40.64634 | -73.80832 | 25 ft | 20 kts | 301° |
| 2026-05-05 04:58 | 40.64703 | -73.80986 | 27 ft | 19 kts | 300° |
| 2026-05-05 04:58 | 40.64769 | -73.81135 | 26 ft | 19 kts | 301° |
| 2026-05-05 04:58 | 40.64844 | -73.81299 | 28 ft | 21 kts | 300° |
| 2026-05-05 04:58 | 40.64916 | -73.81460 | 28 ft | 19 kts | 301° |
| 2026-05-05 04:59 | 40.64944 | -73.81522 | 28 ft | 4 kts | 299° |
| 2026-05-05 04:59 | 40.64948 | -73.81549 | 29 ft | 4 kts | 261° |
| 2026-05-05 04:59 | 40.64932 | -73.81573 | 31 ft | 0 kts | 215° |
| 2026-05-05 05:01 | 40.64903 | -73.81599 | 27 ft | 9 kts | 211° |
| 2026-05-05 05:01 | 40.64832 | -73.81644 | 28 ft | 10 kts | 184° |
| 2026-05-05 05:01 | 40.64811 | -73.81629 | 28 ft | 3 kts | 119° |
| 2026-05-05 05:01 | 40.64807 | -73.81618 | 28 ft | 0 kts | 117° |
| 2026-05-05 05:02 | 40.64806 | -73.81617 | 28 ft | 0 kts | 117° |
| 2026-05-05 05:02 | 40.64806 | -73.81615 | 28 ft | 0 kts | 117° |
| 2026-05-05 05:02 | 40.64805 | -73.81613 | 28 ft | 0 kts | 117° |
| 2026-05-05 05:03 | 40.64804 | -73.81610 | 28 ft | 3 kts | 117° |
| 2026-05-05 05:03 | 40.64749 | -73.81481 | 29 ft | 37 kts | 120° |
| 2026-05-05 05:03 | 40.64500 | -73.80929 | 28 ft | 102 kts | 121° |
| 2026-05-05 05:03 | 40.64029 | -73.79893 | 30 ft | 160 kts | 121° |
| 2026-05-05 05:04 | 40.63447 | -73.78574 | 577 ft | 165 kts | 117° |
| 2026-05-05 05:04 | 40.62822 | -73.77098 | 950 ft | 203 kts | 118° |
| 2026-05-05 05:04 | 40.62655 | -73.75085 | 1439 ft | 245 kts | 91° |
| 2026-05-05 05:04 | 40.62825 | -73.72711 | 1932 ft | 276 kts | 88° |
| 2026-05-05 05:05 | 40.63055 | -73.70133 | 2791 ft | 285 kts | 87° |
| 2026-05-05 05:05 | 40.63283 | -73.67522 | 3816 ft | 290 kts | 87° |
| 2026-05-05 05:05 | 40.63498 | -73.64853 | 4785 ft | 296 kts | 86° |
| 2026-05-05 05:05 | 40.63690 | -73.62163 | 5877 ft | 295 kts | 86° |
| 2026-05-05 05:06 | 40.63853 | -73.59461 | 6834 ft | 297 kts | 87° |
| 2026-05-05 05:06 | 40.63996 | -73.56735 | 7738 ft | 300 kts | 87° |
| 2026-05-05 05:06 | 40.64127 | -73.54013 | 8641 ft | 303 kts | 87° |
| 2026-05-05 05:06 | 40.64250 | -73.51222 | 9533 ft | 307 kts | 87° |
| 2026-05-05 05:07 | 40.64367 | -73.48392 | 10298 ft | 315 kts | 87° |
| 2026-05-05 05:07 | 40.64486 | -73.45384 | 10488 ft | 343 kts | 87° |
| 2026-05-05 05:07 | 40.64613 | -73.42122 | 10647 ft | 370 kts | 87° |
| 2026-05-05 05:07 | 40.64749 | -73.38621 | 10884 ft | 392 kts | 87° |
| 2026-05-05 05:08 | 40.64873 | -73.35038 | 11728 ft | 393 kts | 90° |
| 2026-05-05 05:08 | 40.64410 | -73.31484 | 12441 ft | 396 kts | 112° |
| 2026-05-05 05:08 | 40.63064 | -73.28330 | 13198 ft | 397 kts | 132° |
| 2026-05-05 05:08 | 40.61071 | -73.25818 | 13901 ft | 399 kts | 144° |
| 2026-05-05 05:09 | 40.58833 | -73.23624 | 14572 ft | 402 kts | 147° |
| 2026-05-05 05:09 | 40.56576 | -73.21416 | 15243 ft | 407 kts | 144° |
| 2026-05-05 05:09 | 40.54460 | -73.18910 | 15882 ft | 413 kts | 137° |
| 2026-05-05 05:09 | 40.52471 | -73.16140 | 16553 ft | 418 kts | 135° |
| 2026-05-05 05:10 | 40.50476 | -73.13344 | 17196 ft | 422 kts | 137° |
| 2026-05-05 05:10 | 40.48350 | -73.10659 | 17845 ft | 425 kts | 140° |
| 2026-05-05 05:10 | 40.46184 | -73.07991 | 18449 ft | 429 kts | 139° |
| 2026-05-05 05:10 | 40.44053 | -73.05238 | 19003 ft | 432 kts | 136° |
| 2026-05-05 05:11 | 40.42206 | -73.02079 | 19534 ft | 439 kts | 121° |
| 2026-05-05 05:11 | 40.40955 | -72.98402 | 20073 ft | 444 kts | 107° |
| 2026-05-05 05:11 | 40.40387 | -72.94419 | 20608 ft | 447 kts | 93° |
| 2026-05-05 05:11 | 40.40541 | -72.90386 | 21095 ft | 450 kts | 78° |
| 2026-05-05 05:12 | 40.41331 | -72.86415 | 21551 ft | 452 kts | 72° |
| 2026-05-05 05:12 | 40.42221 | -72.82446 | 22047 ft | 454 kts | 72° |
| 2026-05-05 05:12 | 40.43134 | -72.78465 | 22537 ft | 457 kts | 72° |
| 2026-05-05 05:12 | 40.44041 | -72.74460 | 22995 ft | 460 kts | 72° |
| 2026-05-05 05:13 | 40.44941 | -72.70418 | 23448 ft | 463 kts | 72° |
| 2026-05-05 05:13 | 40.45848 | -72.66351 | 23866 ft | 465 kts | 72° |
| 2026-05-05 05:13 | 40.46765 | -72.62268 | 24233 ft | 468 kts | 72° |
| 2026-05-05 05:13 | 40.47686 | -72.58161 | 24579 ft | 470 kts | 72° |
| 2026-05-05 05:14 | 40.48604 | -72.54033 | 24917 ft | 472 kts | 72° |
| 2026-05-05 05:14 | 40.49527 | -72.49876 | 25272 ft | 474 kts | 72° |
| 2026-05-05 05:14 | 40.50453 | -72.45709 | 25612 ft | 476 kts | 72° |
| 2026-05-05 05:14 | 40.51382 | -72.41524 | 25946 ft | 478 kts | 72° |
| 2026-05-05 05:15 | 40.52314 | -72.37309 | 26278 ft | 480 kts | 72° |
| 2026-05-05 05:15 | 40.53246 | -72.33086 | 26591 ft | 482 kts | 72° |
| 2026-05-05 05:15 | 40.54180 | -72.28846 | 26912 ft | 484 kts | 72° |
| 2026-05-05 05:15 | 40.55118 | -72.24586 | 27200 ft | 486 kts | 72° |
| 2026-05-05 05:16 | 40.56059 | -72.20300 | 27508 ft | 488 kts | 72° |
| 2026-05-05 05:16 | 40.57000 | -72.16000 | 27809 ft | 490 kts | 72° |
| 2026-05-05 05:16 | 40.57943 | -72.11688 | 28097 ft | 491 kts | 72° |
| 2026-05-05 05:16 | 40.58876 | -72.07413 | 28324 ft | 494 kts | 72° |
| 2026-05-05 05:17 | 40.59837 | -72.03002 | 28614 ft | 496 kts | 72° |
| 2026-05-05 05:17 | 40.60773 | -71.98696 | 28868 ft | 498 kts | 72° |
| 2026-05-05 05:17 | 40.61724 | -71.94311 | 29132 ft | 499 kts | 72° |
| 2026-05-05 05:17 | 40.62677 | -71.89908 | 29382 ft | 501 kts | 72° |
| 2026-05-05 05:18 | 40.63631 | -71.85490 | 29628 ft | 503 kts | 72° |
| 2026-05-05 05:18 | 40.64590 | -71.81045 | 29870 ft | 504 kts | 72° |
| 2026-05-05 05:18 | 40.65547 | -71.76596 | 30102 ft | 506 kts | 72° |
| 2026-05-05 05:18 | 40.66504 | -71.72138 | 30308 ft | 507 kts | 72° |
| 2026-05-05 05:19 | 40.67465 | -71.67652 | 30507 ft | 508 kts | 72° |
| 2026-05-05 05:19 | 40.68424 | -71.63164 | 30709 ft | 509 kts | 72° |
| 2026-05-05 05:19 | 40.69385 | -71.58664 | 30908 ft | 511 kts | 72° |
| 2026-05-05 05:19 | 40.70345 | -71.54149 | 31105 ft | 512 kts | 72° |
| 2026-05-05 05:20 | 40.71297 | -71.49670 | 31258 ft | 514 kts | 72° |
| 2026-05-05 05:20 | 40.72258 | -71.45138 | 31548 ft | 513 kts | 72° |
| 2026-05-05 05:20 | 40.73214 | -71.40617 | 31843 ft | 511 kts | 72° |
| 2026-05-05 05:20 | 40.74169 | -71.36093 | 32108 ft | 510 kts | 72° |
| 2026-05-05 05:21 | 40.75118 | -71.31588 | 32379 ft | 509 kts | 72° |
| 2026-05-05 05:21 | 40.76062 | -71.27100 | 32659 ft | 508 kts | 72° |
| 2026-05-05 05:21 | 40.77003 | -71.22609 | 32925 ft | 507 kts | 71° |
| 2026-05-05 05:21 | 40.77943 | -71.18120 | 33192 ft | 506 kts | 71° |
| 2026-05-05 05:22 | 40.78878 | -71.13644 | 33476 ft | 506 kts | 71° |
| 2026-05-05 05:22 | 40.79809 | -71.09175 | 33743 ft | 505 kts | 71° |
| 2026-05-05 05:22 | 40.80735 | -71.04723 | 34001 ft | 504 kts | 71° |
| 2026-05-05 05:22 | 40.81662 | -71.00257 | 34217 ft | 504 kts | 71° |
| 2026-05-05 05:23 | 40.82587 | -70.95791 | 34350 ft | 505 kts | 71° |
| 2026-05-05 05:23 | 40.83512 | -70.91314 | 34511 ft | 505 kts | 72° |
| 2026-05-05 05:23 | 40.84434 | -70.86841 | 34660 ft | 506 kts | 72° |
| 2026-05-05 05:23 | 40.85360 | -70.82342 | 34795 ft | 508 kts | 72° |
| 2026-05-05 05:24 | 40.86285 | -70.77838 | 34943 ft | 508 kts | 72° |
| 2026-05-05 05:24 | 40.87199 | -70.73375 | 35094 ft | 509 kts | 72° |
| 2026-05-05 05:24 | 40.88123 | -70.68855 | 35239 ft | 510 kts | 72° |
| 2026-05-05 05:24 | 40.89049 | -70.64315 | 35368 ft | 511 kts | 72° |
| 2026-05-05 05:25 | 40.89973 | -70.59776 | 35522 ft | 512 kts | 72° |
| 2026-05-05 05:25 | 40.90895 | -70.55234 | 35660 ft | 513 kts | 72° |
| 2026-05-05 05:25 | 40.91818 | -70.50677 | 35782 ft | 514 kts | 72° |
| 2026-05-05 05:25 | 40.92742 | -70.46109 | 35937 ft | 515 kts | 72° |
| 2026-05-05 05:26 | 40.93665 | -70.41532 | 36056 ft | 516 kts | 72° |
| 2026-05-05 05:26 | 40.94590 | -70.36935 | 36194 ft | 516 kts | 72° |
| 2026-05-05 05:26 | 40.95512 | -70.32346 | 36337 ft | 517 kts | 72° |
| 2026-05-05 05:26 | 40.96434 | -70.27743 | 36451 ft | 518 kts | 72° |
| 2026-05-05 05:27 | 40.97046 | -70.24685 | 36525 ft | 519 kts | 73° |
| 2026-05-05 05:27 | 40.98267 | -70.18562 | 36740 ft | 519 kts | 73° |
| 2026-05-05 05:27 | 41.00106 | -70.09311 | 37020 ft | 520 kts | 73° |
| 2026-05-05 05:28 | 41.01650 | -70.01512 | 37004 ft | 522 kts | 73° |
| 2026-05-05 05:28 | 41.03476 | -69.92244 | 37009 ft | 519 kts | 73° |
| 2026-05-05 05:29 | 41.05279 | -69.83058 | 37011 ft | 519 kts | 73° |
| 2026-05-05 05:29 | 41.07335 | -69.73906 | 37058 ft | 516 kts | 61° |
| 2026-05-05 05:30 | 41.10796 | -69.65605 | 37021 ft | 515 kts | 57° |
| 2026-05-05 05:30 | 41.14339 | -69.57351 | 37025 ft | 515 kts | 57° |
| 2026-05-05 05:31 | 41.17864 | -69.49085 | 37033 ft | 515 kts | 57° |
| 2026-05-05 05:31 | 41.21404 | -69.40784 | 37039 ft | 516 kts | 57° |
| 2026-05-05 05:32 | 41.24914 | -69.32516 | 37039 ft | 517 kts | 57° |
| 2026-05-05 05:32 | 41.28431 | -69.24215 | 37039 ft | 515 kts | 57° |
| 2026-05-05 05:33 | 41.31940 | -69.15909 | 37040 ft | 515 kts | 57° |
| 2026-05-05 05:33 | 41.35442 | -69.07597 | 37040 ft | 515 kts | 57° |
| 2026-05-05 05:34 | 41.38940 | -68.99269 | 37036 ft | 515 kts | 57° |
| 2026-05-05 05:34 | 41.42438 | -68.90921 | 37037 ft | 515 kts | 57° |
| 2026-05-05 05:35 | 41.45928 | -68.82568 | 37042 ft | 517 kts | 57° |
| 2026-05-05 05:35 | 41.49416 | -68.74194 | 37042 ft | 517 kts | 57° |
| 2026-05-05 05:36 | 41.52911 | -68.65779 | 37042 ft | 517 kts | 58° |
| 2026-05-05 05:36 | 41.56394 | -68.57373 | 37044 ft | 517 kts | 58° |
| 2026-05-05 05:37 | 41.59816 | -68.49087 | 37050 ft | 518 kts | 58° |
| 2026-05-05 05:37 | 41.63297 | -68.40638 | 37054 ft | 519 kts | 58° |
| 2026-05-05 05:38 | 41.66775 | -68.32170 | 37046 ft | 519 kts | 58° |
| 2026-05-05 05:38 | 41.70247 | -68.23691 | 37050 ft | 518 kts | 58° |
| 2026-05-05 05:39 | 41.73705 | -68.15225 | 37043 ft | 518 kts | 58° |
| 2026-05-05 05:39 | 41.77155 | -68.06752 | 37033 ft | 518 kts | 58° |
| 2026-05-05 05:40 | 41.80583 | -67.98310 | 37043 ft | 519 kts | 58° |